Etusivu
METAR-TAF:

METAR-TAF

Lentoasemat :

Gao, Mali

Leveyspiiri: 16-16N, Pituuspiiri: 000-03W, korkeus merenpinnasta: 265 m

METAR: puuttuu

Aika: 14:49 (14:49 UTC)

Sääennuste

Tämä raportti tehtiin 3 tuntia ja 19 minuuttia sitten, kello 11.30 UTC
Ennuste voimassa 20. päivästä klo 12 UTC - 21. päivään klo 12 UTC
Tuuli 12 kn idästä
Näkyvyys: 8000 m
Todennäköisyys 40% :
Ajoittain
20. päivästä klo 12 UTC - 20. päivään klo 18 UTC
Näkyvyys: 4000 m
laajalle levinnyttä pölyä

TAF: GAGO 201130Z 2012/2112 10012KT 8000 NSC PROB40 TEMPO 2012/2018 4000 DU

Säähavainnot ja -ennusteet yli 4000 lentoasemalta (METAR- ja TAF-raportit).

Käytössä olevat sääasemat on merkitty karttaan keltaisilla ja punaisilla pisteillä.

Aseta hiiri pisteen päälle nähdäksesi sääaseman nimen.

Klikkaa sitten nähdäksesi säähavainnot ja -ennusteet.

Kartan vaihtaminen: klikkaa mustalla rastilla varustettuja vihreitä pisteitä, niin voit zoomata sisään; viivalla varustettua vihreää pistettä, niin voit zoomata ulos tai vihreitä nuolia, niin pääset viereisille kartoille.


METAR-TAF: